sensor_id;sensor_type;location;lat;lon;timestamp;P1;durP1;ratioP1;P2;durP2;ratioP2
50219;SDS011;36110;51.536;7.562;2024-03-02T00:00:36;2.05;;;1.85;;
50219;SDS011;36110;51.536;7.562;2024-03-02T00:03:02;2.35;;;2.05;;
50219;SDS011;36110;51.536;7.562;2024-03-02T00:05:27;2.13;;;1.90;;
50219;SDS011;36110;51.536;7.562;2024-03-02T00:07:53;2.92;;;2.20;;
50219;SDS011;36110;51.536;7.562;2024-03-02T00:10:21;2.55;;;1.80;;
50219;SDS011;36110;51.536;7.562;2024-03-02T00:12:54;3.97;;;2.20;;
50219;SDS011;36110;51.536;7.562;2024-03-02T00:15:35;3.38;;;1.90;;
50219;SDS011;36110;51.536;7.562;2024-03-02T00:18:08;2.20;;;2.00;;
50219;SDS011;36110;51.536;7.562;2024-03-02T00:20:34;2.83;;;2.47;;
50219;SDS011;36110;51.536;7.562;2024-03-02T00:23:02;2.42;;;1.88;;
50219;SDS011;36110;51.536;7.562;2024-03-02T00:25:39;2.38;;;1.58;;
50219;SDS011;36110;51.536;7.562;2024-03-02T00:33:27;3.35;;;1.98;;
50219;SDS011;36110;51.536;7.562;2024-03-02T00:35:55;1.52;;;1.42;;
50219;SDS011;36110;51.536;7.562;2024-03-02T00:38:21;2.65;;;1.83;;
50219;SDS011;36110;51.536;7.562;2024-03-02T00:40:47;2.97;;;2.28;;
50219;SDS011;36110;51.536;7.562;2024-03-02T00:43:56;2.58;;;2.00;;
50219;SDS011;36110;51.536;7.562;2024-03-02T00:46:17;2.63;;;2.13;;
50219;SDS011;36110;51.536;7.562;2024-03-02T00:48:48;1.40;;;1.30;;
50219;SDS011;36110;51.536;7.562;2024-03-02T00:51:23;2.00;;;1.58;;
50219;SDS011;36110;51.536;7.562;2024-03-02T00:53:50;1.70;;;1.58;;
50219;SDS011;36110;51.536;7.562;2024-03-02T00:56:17;3.63;;;1.90;;
50219;SDS011;36110;51.536;7.562;2024-03-02T00:58:43;1.95;;;1.50;;
50219;SDS011;36110;51.536;7.562;2024-03-02T01:01:08;2.08;;;1.63;;
50219;SDS011;36110;51.536;7.562;2024-03-02T01:03:34;1.77;;;1.52;;
50219;SDS011;36110;51.536;7.562;2024-03-02T01:05:59;1.67;;;1.48;;
50219;SDS011;36110;51.536;7.562;2024-03-02T01:08:25;3.08;;;1.40;;
50219;SDS011;36110;51.536;7.562;2024-03-02T01:10:51;1.35;;;1.25;;
50219;SDS011;36110;51.536;7.562;2024-03-02T01:13:16;1.50;;;1.40;;
50219;SDS011;36110;51.536;7.562;2024-03-02T01:15:41;1.60;;;1.40;;
50219;SDS011;36110;51.536;7.562;2024-03-02T01:18:07;1.40;;;1.30;;
50219;SDS011;36110;51.536;7.562;2024-03-02T01:20:32;2.22;;;1.35;;
50219;SDS011;36110;51.536;7.562;2024-03-02T01:22:58;2.30;;;1.25;;
50219;SDS011;36110;51.536;7.562;2024-03-02T01:25:23;2.75;;;1.40;;
50219;SDS011;36110;51.536;7.562;2024-03-02T01:27:49;2.40;;;1.77;;
50219;SDS011;36110;51.536;7.562;2024-03-02T01:30:15;1.65;;;1.15;;
50219;SDS011;36110;51.536;7.562;2024-03-02T01:32:40;2.70;;;1.30;;
50219;SDS011;36110;51.536;7.562;2024-03-02T01:35:06;4.05;;;1.58;;
50219;SDS011;36110;51.536;7.562;2024-03-02T01:37:32;1.70;;;1.55;;
50219;SDS011;36110;51.536;7.562;2024-03-02T01:39:57;1.55;;;1.45;;
50219;SDS011;36110;51.536;7.562;2024-03-02T01:42:23;2.10;;;1.70;;
50219;SDS011;36110;51.536;7.562;2024-03-02T01:44:48;1.67;;;1.30;;
50219;SDS011;36110;51.536;7.562;2024-03-02T01:47:14;2.33;;;1.60;;
50219;SDS011;36110;51.536;7.562;2024-03-02T01:49:39;2.70;;;1.70;;
50219;SDS011;36110;51.536;7.562;2024-03-02T01:52:06;1.85;;;1.33;;
50219;SDS011;36110;51.536;7.562;2024-03-02T01:54:31;5.28;;;1.65;;
50219;SDS011;36110;51.536;7.562;2024-03-02T01:56:57;2.22;;;1.38;;
50219;SDS011;36110;51.536;7.562;2024-03-02T01:59:22;1.55;;;1.40;;
50219;SDS011;36110;51.536;7.562;2024-03-02T02:01:47;3.70;;;1.40;;
50219;SDS011;36110;51.536;7.562;2024-03-02T02:04:12;2.97;;;1.58;;
50219;SDS011;36110;51.536;7.562;2024-03-02T02:06:38;1.63;;;1.40;;
50219;SDS011;36110;51.536;7.562;2024-03-02T02:09:04;2.97;;;1.60;;
50219;SDS011;36110;51.536;7.562;2024-03-02T02:11:29;4.15;;;1.52;;
50219;SDS011;36110;51.536;7.562;2024-03-02T02:13:54;1.80;;;1.52;;
50219;SDS011;36110;51.536;7.562;2024-03-02T02:16:23;2.40;;;1.52;;
50219;SDS011;36110;51.536;7.562;2024-03-02T02:18:48;1.45;;;1.05;;
50219;SDS011;36110;51.536;7.562;2024-03-02T02:21:13;2.67;;;1.50;;
50219;SDS011;36110;51.536;7.562;2024-03-02T02:23:39;3.80;;;1.50;;
50219;SDS011;36110;51.536;7.562;2024-03-02T02:26:04;3.20;;;1.58;;
50219;SDS011;36110;51.536;7.562;2024-03-02T02:28:29;3.80;;;1.70;;
50219;SDS011;36110;51.536;7.562;2024-03-02T02:30:55;1.63;;;1.40;;
50219;SDS011;36110;51.536;7.562;2024-03-02T02:33:25;1.92;;;1.35;;
50219;SDS011;36110;51.536;7.562;2024-03-02T02:35:50;3.03;;;1.40;;
50219;SDS011;36110;51.536;7.562;2024-03-02T02:38:15;2.50;;;1.20;;
50219;SDS011;36110;51.536;7.562;2024-03-02T02:40:41;2.35;;;1.35;;
50219;SDS011;36110;51.536;7.562;2024-03-02T02:43:06;3.17;;;1.60;;
50219;SDS011;36110;51.536;7.562;2024-03-02T02:45:32;1.55;;;1.20;;
50219;SDS011;36110;51.536;7.562;2024-03-02T02:47:57;1.92;;;1.10;;
50219;SDS011;36110;51.536;7.562;2024-03-02T02:50:22;3.60;;;1.45;;
50219;SDS011;36110;51.536;7.562;2024-03-02T02:52:48;1.92;;;1.30;;
50219;SDS011;36110;51.536;7.562;2024-03-02T02:55:13;2.45;;;1.50;;
50219;SDS011;36110;51.536;7.562;2024-03-02T02:57:40;2.35;;;1.50;;
50219;SDS011;36110;51.536;7.562;2024-03-02T03:00:08;1.42;;;1.17;;
50219;SDS011;36110;51.536;7.562;2024-03-02T03:02:41;1.25;;;1.15;;
50219;SDS011;36110;51.536;7.562;2024-03-02T03:05:07;2.85;;;1.45;;
50219;SDS011;36110;51.536;7.562;2024-03-02T03:07:33;2.22;;;1.40;;
50219;SDS011;36110;51.536;7.562;2024-03-02T03:10:02;1.95;;;1.50;;
50219;SDS011;36110;51.536;7.562;2024-03-02T03:12:28;5.57;;;1.50;;
50219;SDS011;36110;51.536;7.562;2024-03-02T03:14:54;4.03;;;1.50;;
50219;SDS011;36110;51.536;7.562;2024-03-02T03:17:20;4.00;;;1.52;;
50219;SDS011;36110;51.536;7.562;2024-03-02T03:19:46;4.35;;;1.63;;
50219;SDS011;36110;51.536;7.562;2024-03-02T03:22:12;2.97;;;1.45;;
50219;SDS011;36110;51.536;7.562;2024-03-02T03:24:38;3.72;;;1.50;;
50219;SDS011;36110;51.536;7.562;2024-03-02T03:27:04;1.35;;;0.98;;
50219;SDS011;36110;51.536;7.562;2024-03-02T03:29:29;2.08;;;1.50;;
50219;SDS011;36110;51.536;7.562;2024-03-02T03:31:54;3.53;;;1.95;;
50219;SDS011;36110;51.536;7.562;2024-03-02T03:34:20;4.50;;;1.58;;
50219;SDS011;36110;51.536;7.562;2024-03-02T03:36:45;1.05;;;0.98;;
50219;SDS011;36110;51.536;7.562;2024-03-02T03:39:10;2.17;;;1.70;;
50219;SDS011;36110;51.536;7.562;2024-03-02T03:41:36;5.90;;;1.77;;
50219;SDS011;36110;51.536;7.562;2024-03-02T03:44:01;4.30;;;1.50;;
50219;SDS011;36110;51.536;7.562;2024-03-02T03:46:26;2.10;;;1.50;;
50219;SDS011;36110;51.536;7.562;2024-03-02T03:48:52;4.82;;;1.70;;
50219;SDS011;36110;51.536;7.562;2024-03-02T03:51:17;2.58;;;1.30;;
50219;SDS011;36110;51.536;7.562;2024-03-02T03:53:43;1.77;;;1.30;;
50219;SDS011;36110;51.536;7.562;2024-03-02T03:56:08;2.85;;;1.50;;
50219;SDS011;36110;51.536;7.562;2024-03-02T03:58:33;2.92;;;1.60;;
50219;SDS011;36110;51.536;7.562;2024-03-02T04:00:58;3.13;;;1.48;;
50219;SDS011;36110;51.536;7.562;2024-03-02T04:03:24;2.22;;;1.15;;
50219;SDS011;36110;51.536;7.562;2024-03-02T04:05:50;3.13;;;1.52;;
50219;SDS011;36110;51.536;7.562;2024-03-02T04:08:15;2.95;;;1.60;;
50219;SDS011;36110;51.536;7.562;2024-03-02T04:10:41;2.63;;;1.70;;
50219;SDS011;36110;51.536;7.562;2024-03-02T04:13:07;1.70;;;1.50;;
50219;SDS011;36110;51.536;7.562;2024-03-02T04:15:32;2.92;;;1.50;;
50219;SDS011;36110;51.536;7.562;2024-03-02T04:17:57;2.88;;;1.50;;
50219;SDS011;36110;51.536;7.562;2024-03-02T04:20:23;2.65;;;1.42;;
50219;SDS011;36110;51.536;7.562;2024-03-02T04:22:48;2.67;;;1.45;;
50219;SDS011;36110;51.536;7.562;2024-03-02T04:25:13;2.38;;;1.45;;
50219;SDS011;36110;51.536;7.562;2024-03-02T04:27:39;3.55;;;1.50;;
50219;SDS011;36110;51.536;7.562;2024-03-02T04:30:04;2.58;;;1.60;;
50219;SDS011;36110;51.536;7.562;2024-03-02T04:32:30;2.58;;;1.65;;
50219;SDS011;36110;51.536;7.562;2024-03-02T04:34:56;1.60;;;1.50;;
50219;SDS011;36110;51.536;7.562;2024-03-02T04:37:22;2.80;;;1.73;;
50219;SDS011;36110;51.536;7.562;2024-03-02T04:39:47;2.22;;;1.90;;
50219;SDS011;36110;51.536;7.562;2024-03-02T04:42:12;3.78;;;2.10;;
50219;SDS011;36110;51.536;7.562;2024-03-02T04:44:38;2.42;;;1.70;;
50219;SDS011;36110;51.536;7.562;2024-03-02T04:47:03;4.28;;;1.83;;
50219;SDS011;36110;51.536;7.562;2024-03-02T04:49:29;2.33;;;1.50;;
50219;SDS011;36110;51.536;7.562;2024-03-02T04:51:55;2.40;;;1.60;;
50219;SDS011;36110;51.536;7.562;2024-03-02T04:54:20;1.10;;;0.90;;
50219;SDS011;36110;51.536;7.562;2024-03-02T04:56:46;1.23;;;1.13;;
50219;SDS011;36110;51.536;7.562;2024-03-02T04:59:20;2.20;;;1.77;;
50219;SDS011;36110;51.536;7.562;2024-03-02T05:01:45;1.50;;;1.10;;
50219;SDS011;36110;51.536;7.562;2024-03-02T05:04:11;1.05;;;0.80;;
50219;SDS011;36110;51.536;7.562;2024-03-02T05:06:37;2.05;;;1.30;;
50219;SDS011;36110;51.536;7.562;2024-03-02T05:09:04;2.17;;;1.73;;
50219;SDS011;36110;51.536;7.562;2024-03-02T05:11:29;2.65;;;1.70;;
50219;SDS011;36110;51.536;7.562;2024-03-02T05:14:21;4.93;;;1.60;;
50219;SDS011;36110;51.536;7.562;2024-03-02T05:16:46;1.92;;;1.60;;
50219;SDS011;36110;51.536;7.562;2024-03-02T05:19:11;1.00;;;0.93;;
50219;SDS011;36110;51.536;7.562;2024-03-02T05:21:37;2.30;;;1.77;;
50219;SDS011;36110;51.536;7.562;2024-03-02T05:24:02;1.55;;;1.13;;
50219;SDS011;36110;51.536;7.562;2024-03-02T05:26:28;1.35;;;0.90;;
50219;SDS011;36110;51.536;7.562;2024-03-02T05:28:53;1.50;;;1.40;;
50219;SDS011;36110;51.536;7.562;2024-03-02T05:31:19;2.60;;;1.40;;
50219;SDS011;36110;51.536;7.562;2024-03-02T05:33:44;2.85;;;2.05;;
50219;SDS011;36110;51.536;7.562;2024-03-02T05:36:09;2.42;;;1.55;;
50219;SDS011;36110;51.536;7.562;2024-03-02T05:38:35;1.83;;;0.95;;
50219;SDS011;36110;51.536;7.562;2024-03-02T05:41:00;1.80;;;1.67;;
50219;SDS011;36110;51.536;7.562;2024-03-02T05:43:26;2.45;;;1.73;;
50219;SDS011;36110;51.536;7.562;2024-03-02T05:45:51;2.80;;;1.65;;
50219;SDS011;36110;51.536;7.562;2024-03-02T05:48:17;1.27;;;1.02;;
50219;SDS011;36110;51.536;7.562;2024-03-02T05:50:42;2.85;;;1.95;;
50219;SDS011;36110;51.536;7.562;2024-03-02T05:53:07;3.80;;;1.90;;
50219;SDS011;36110;51.536;7.562;2024-03-02T05:55:33;2.92;;;1.70;;
50219;SDS011;36110;51.536;7.562;2024-03-02T05:57:58;3.08;;;1.80;;
50219;SDS011;36110;51.536;7.562;2024-03-02T06:00:23;3.63;;;1.98;;
50219;SDS011;36110;51.536;7.562;2024-03-02T06:02:49;2.20;;;0.90;;
50219;SDS011;36110;51.536;7.562;2024-03-02T06:05:14;2.05;;;1.50;;
50219;SDS011;36110;51.536;7.562;2024-03-02T06:07:40;3.85;;;1.60;;
50219;SDS011;36110;51.536;7.562;2024-03-02T06:10:06;2.08;;;1.80;;
50219;SDS011;36110;51.536;7.562;2024-03-02T06:12:33;3.70;;;1.65;;
50219;SDS011;36110;51.536;7.562;2024-03-02T06:14:59;3.67;;;1.73;;
50219;SDS011;36110;51.536;7.562;2024-03-02T06:17:24;1.67;;;1.55;;
50219;SDS011;36110;51.536;7.562;2024-03-02T06:19:49;4.13;;;2.15;;
50219;SDS011;36110;51.536;7.562;2024-03-02T06:22:15;2.35;;;2.00;;
50219;SDS011;36110;51.536;7.562;2024-03-02T06:24:40;3.45;;;2.30;;
50219;SDS011;36110;51.536;7.562;2024-03-02T06:27:05;4.28;;;2.20;;
50219;SDS011;36110;51.536;7.562;2024-03-02T06:29:34;5.85;;;2.58;;
50219;SDS011;36110;51.536;7.562;2024-03-02T06:31:59;2.97;;;2.00;;
50219;SDS011;36110;51.536;7.562;2024-03-02T06:34:25;6.80;;;2.63;;
50219;SDS011;36110;51.536;7.562;2024-03-02T06:36:50;4.07;;;1.63;;
50219;SDS011;36110;51.536;7.562;2024-03-02T06:39:15;2.28;;;2.08;;
50219;SDS011;36110;51.536;7.562;2024-03-02T06:41:41;4.60;;;2.40;;
50219;SDS011;36110;51.536;7.562;2024-03-02T06:44:07;4.32;;;2.58;;
50219;SDS011;36110;51.536;7.562;2024-03-02T06:46:33;3.08;;;2.28;;
50219;SDS011;36110;51.536;7.562;2024-03-02T06:48:58;3.78;;;2.35;;
50219;SDS011;36110;51.536;7.562;2024-03-02T06:51:23;1.40;;;1.30;;
50219;SDS011;36110;51.536;7.562;2024-03-02T06:53:48;3.17;;;1.70;;
50219;SDS011;36110;51.536;7.562;2024-03-02T06:56:14;3.72;;;2.40;;
50219;SDS011;36110;51.536;7.562;2024-03-02T06:58:39;4.80;;;2.70;;
50219;SDS011;36110;51.536;7.562;2024-03-02T07:01:04;5.00;;;2.40;;
50219;SDS011;36110;51.536;7.562;2024-03-02T07:03:30;5.72;;;2.70;;
50219;SDS011;36110;51.536;7.562;2024-03-02T07:05:55;1.50;;;1.40;;
50219;SDS011;36110;51.536;7.562;2024-03-02T07:08:20;6.50;;;2.50;;
50219;SDS011;36110;51.536;7.562;2024-03-02T07:10:46;5.03;;;1.63;;
50219;SDS011;36110;51.536;7.562;2024-03-02T07:13:12;2.47;;;2.13;;
50219;SDS011;36110;51.536;7.562;2024-03-02T07:15:38;4.80;;;2.60;;
50219;SDS011;36110;51.536;7.562;2024-03-02T07:18:30;3.60;;;2.47;;
50219;SDS011;36110;51.536;7.562;2024-03-02T07:20:56;3.60;;;2.70;;
50219;SDS011;36110;51.536;7.562;2024-03-02T07:23:24;2.72;;;1.95;;
50219;SDS011;36110;51.536;7.562;2024-03-02T07:25:52;5.63;;;2.38;;
50219;SDS011;36110;51.536;7.562;2024-03-02T07:28:21;4.80;;;2.80;;
50219;SDS011;36110;51.536;7.562;2024-03-02T07:31:02;4.07;;;2.92;;
50219;SDS011;36110;51.536;7.562;2024-03-02T07:33:29;3.67;;;2.63;;
50219;SDS011;36110;51.536;7.562;2024-03-02T07:35:54;4.13;;;2.92;;
50219;SDS011;36110;51.536;7.562;2024-03-02T07:38:20;1.77;;;1.58;;
50219;SDS011;36110;51.536;7.562;2024-03-02T07:40:46;3.95;;;2.47;;
50219;SDS011;36110;51.536;7.562;2024-03-02T07:43:11;3.05;;;2.55;;
50219;SDS011;36110;51.536;7.562;2024-03-02T07:45:37;2.55;;;2.33;;
50219;SDS011;36110;51.536;7.562;2024-03-02T07:48:02;4.60;;;3.20;;
50219;SDS011;36110;51.536;7.562;2024-03-02T07:50:29;4.03;;;2.75;;
50219;SDS011;36110;51.536;7.562;2024-03-02T07:52:55;4.25;;;3.33;;
50219;SDS011;36110;51.536;7.562;2024-03-02T07:55:20;3.95;;;3.40;;
50219;SDS011;36110;51.536;7.562;2024-03-02T07:57:46;5.88;;;3.00;;
50219;SDS011;36110;51.536;7.562;2024-03-02T08:00:11;5.05;;;2.92;;
50219;SDS011;36110;51.536;7.562;2024-03-02T08:02:37;4.55;;;3.55;;
50219;SDS011;36110;51.536;7.562;2024-03-02T08:05:02;5.40;;;3.63;;
50219;SDS011;36110;51.536;7.562;2024-03-02T08:07:27;5.35;;;3.28;;
50219;SDS011;36110;51.536;7.562;2024-03-02T08:09:53;4.72;;;3.75;;
50219;SDS011;36110;51.536;7.562;2024-03-02T08:12:18;4.32;;;3.50;;
50219;SDS011;36110;51.536;7.562;2024-03-02T08:14:44;5.22;;;3.75;;
50219;SDS011;36110;51.536;7.562;2024-03-02T08:17:10;5.95;;;3.67;;
50219;SDS011;36110;51.536;7.562;2024-03-02T08:19:36;3.15;;;2.75;;
50219;SDS011;36110;51.536;7.562;2024-03-02T08:22:02;4.38;;;3.45;;
50219;SDS011;36110;51.536;7.562;2024-03-02T08:24:28;4.03;;;3.17;;
50219;SDS011;36110;51.536;7.562;2024-03-02T08:26:53;6.97;;;3.38;;
50219;SDS011;36110;51.536;7.562;2024-03-02T08:29:18;7.93;;;3.97;;
50219;SDS011;36110;51.536;7.562;2024-03-02T08:31:44;5.10;;;1.83;;
50219;SDS011;36110;51.536;7.562;2024-03-02T08:34:10;3.42;;;3.03;;
50219;SDS011;36110;51.536;7.562;2024-03-02T08:36:35;5.13;;;3.33;;
50219;SDS011;36110;51.536;7.562;2024-03-02T08:39:01;4.38;;;2.95;;
50219;SDS011;36110;51.536;7.562;2024-03-02T08:41:27;3.33;;;1.75;;
50219;SDS011;36110;51.536;7.562;2024-03-02T08:43:52;3.92;;;2.45;;
50219;SDS011;36110;51.536;7.562;2024-03-02T08:46:18;4.72;;;3.42;;
50219;SDS011;36110;51.536;7.562;2024-03-02T08:48:43;4.65;;;3.00;;
50219;SDS011;36110;51.536;7.562;2024-03-02T08:51:08;5.43;;;3.40;;
50219;SDS011;36110;51.536;7.562;2024-03-02T08:53:35;3.13;;;2.58;;
50219;SDS011;36110;51.536;7.562;2024-03-02T08:56:01;6.00;;;2.45;;
50219;SDS011;36110;51.536;7.562;2024-03-02T08:58:26;1.85;;;1.70;;
50219;SDS011;36110;51.536;7.562;2024-03-02T09:00:52;4.28;;;2.78;;
50219;SDS011;36110;51.536;7.562;2024-03-02T09:03:17;4.72;;;2.90;;
50219;SDS011;36110;51.536;7.562;2024-03-02T09:05:42;4.55;;;2.60;;
50219;SDS011;36110;51.536;7.562;2024-03-02T09:08:08;7.00;;;2.38;;
50219;SDS011;36110;51.536;7.562;2024-03-02T09:10:33;3.47;;;2.33;;
50219;SDS011;36110;51.536;7.562;2024-03-02T09:12:59;3.33;;;2.70;;
50219;SDS011;36110;51.536;7.562;2024-03-02T09:15:24;5.43;;;2.90;;
50219;SDS011;36110;51.536;7.562;2024-03-02T09:17:50;4.60;;;2.60;;
50219;SDS011;36110;51.536;7.562;2024-03-02T09:20:15;4.50;;;2.70;;
50219;SDS011;36110;51.536;7.562;2024-03-02T09:22:41;4.70;;;2.78;;
50219;SDS011;36110;51.536;7.562;2024-03-02T09:25:07;4.32;;;2.80;;
50219;SDS011;36110;51.536;7.562;2024-03-02T09:27:35;5.55;;;2.75;;
50219;SDS011;36110;51.536;7.562;2024-03-02T09:30:01;3.85;;;2.50;;
50219;SDS011;36110;51.536;7.562;2024-03-02T09:32:27;3.90;;;2.67;;
50219;SDS011;36110;51.536;7.562;2024-03-02T09:34:52;3.65;;;2.47;;
50219;SDS011;36110;51.536;7.562;2024-03-02T09:37:18;2.88;;;2.28;;
50219;SDS011;36110;51.536;7.562;2024-03-02T09:39:44;5.05;;;2.60;;
50219;SDS011;36110;51.536;7.562;2024-03-02T09:42:10;2.55;;;2.35;;
50219;SDS011;36110;51.536;7.562;2024-03-02T09:44:35;4.03;;;2.45;;
50219;SDS011;36110;51.536;7.562;2024-03-02T09:47:01;6.32;;;2.40;;
50219;SDS011;36110;51.536;7.562;2024-03-02T09:49:27;3.90;;;2.00;;
50219;SDS011;36110;51.536;7.562;2024-03-02T09:51:52;6.57;;;2.25;;
50219;SDS011;36110;51.536;7.562;2024-03-02T09:54:18;4.13;;;2.20;;
50219;SDS011;36110;51.536;7.562;2024-03-02T09:56:46;2.75;;;1.67;;
50219;SDS011;36110;51.536;7.562;2024-03-02T09:59:12;3.67;;;2.20;;
50219;SDS011;36110;51.536;7.562;2024-03-02T10:01:38;2.92;;;2.00;;
50219;SDS011;36110;51.536;7.562;2024-03-02T10:04:03;3.00;;;2.10;;
50219;SDS011;36110;51.536;7.562;2024-03-02T10:06:30;2.35;;;1.83;;
50219;SDS011;36110;51.536;7.562;2024-03-02T10:08:55;2.67;;;1.77;;
50219;SDS011;36110;51.536;7.562;2024-03-02T10:11:33;2.72;;;1.85;;
50219;SDS011;36110;51.536;7.562;2024-03-02T10:16:33;40.72;;;4.60;;
50219;SDS011;36110;51.536;7.562;2024-03-02T10:19:18;4.68;;;1.70;;
50219;SDS011;36110;51.536;7.562;2024-03-02T10:21:46;1.42;;;1.33;;
50219;SDS011;36110;51.536;7.562;2024-03-02T10:24:15;1.80;;;1.63;;
50219;SDS011;36110;51.536;7.562;2024-03-02T10:26:41;2.25;;;1.38;;
50219;SDS011;36110;51.536;7.562;2024-03-02T10:29:07;2.15;;;1.10;;
50219;SDS011;36110;51.536;7.562;2024-03-02T10:31:33;1.33;;;1.17;;
50219;SDS011;36110;51.536;7.562;2024-03-02T10:33:59;1.50;;;1.02;;
50219;SDS011;36110;51.536;7.562;2024-03-02T10:36:25;1.73;;;1.30;;
50219;SDS011;36110;51.536;7.562;2024-03-02T10:38:51;2.53;;;1.08;;
50219;SDS011;36110;51.536;7.562;2024-03-02T10:41:20;1.42;;;1.33;;
50219;SDS011;36110;51.536;7.562;2024-03-02T10:43:48;2.00;;;1.60;;
50219;SDS011;36110;51.536;7.562;2024-03-02T10:46:16;1.23;;;1.10;;
50219;SDS011;36110;51.536;7.562;2024-03-02T10:48:44;1.38;;;1.27;;
50219;SDS011;36110;51.536;7.562;2024-03-02T10:51:11;1.17;;;1.00;;
50219;SDS011;36110;51.536;7.562;2024-03-02T10:53:36;3.33;;;1.15;;
50219;SDS011;36110;51.536;7.562;2024-03-02T10:56:02;1.70;;;1.60;;
50219;SDS011;36110;51.536;7.562;2024-03-02T10:58:31;9.93;;;1.80;;
50219;SDS011;36110;51.536;7.562;2024-03-02T11:00:59;2.72;;;1.35;;
50219;SDS011;36110;51.536;7.562;2024-03-02T11:03:28;1.20;;;1.10;;
50219;SDS011;36110;51.536;7.562;2024-03-02T11:05:54;1.95;;;1.67;;
50219;SDS011;36110;51.536;7.562;2024-03-02T11:08:20;1.60;;;1.10;;
50219;SDS011;36110;51.536;7.562;2024-03-02T11:13:17;1.85;;;1.10;;
50219;SDS011;36110;51.536;7.562;2024-03-02T11:15:47;1.98;;;1.65;;
50219;SDS011;36110;51.536;7.562;2024-03-02T11:18:13;1.77;;;1.13;;
50219;SDS011;36110;51.536;7.562;2024-03-02T11:20:39;2.10;;;1.35;;
50219;SDS011;36110;51.536;7.562;2024-03-02T11:23:06;1.65;;;1.00;;
50219;SDS011;36110;51.536;7.562;2024-03-02T11:25:41;2.50;;;1.00;;
50219;SDS011;36110;51.536;7.562;2024-03-02T11:28:06;4.70;;;1.20;;
50219;SDS011;36110;51.536;7.562;2024-03-02T11:33:22;2.67;;;1.52;;
50219;SDS011;36110;51.536;7.562;2024-03-02T11:35:49;1.25;;;1.15;;
50219;SDS011;36110;51.536;7.562;2024-03-02T11:38:14;2.33;;;1.33;;
50219;SDS011;36110;51.536;7.562;2024-03-02T11:40:40;2.08;;;1.35;;
50219;SDS011;36110;51.536;7.562;2024-03-02T11:43:05;2.25;;;1.40;;
50219;SDS011;36110;51.536;7.562;2024-03-02T11:45:32;4.32;;;1.52;;
50219;SDS011;36110;51.536;7.562;2024-03-02T11:47:58;1.10;;;1.00;;
50219;SDS011;36110;51.536;7.562;2024-03-02T11:50:35;1.23;;;1.10;;
50219;SDS011;36110;51.536;7.562;2024-03-02T11:53:03;4.53;;;1.13;;
50219;SDS011;36110;51.536;7.562;2024-03-02T11:55:36;4.68;;;1.27;;
50219;SDS011;36110;51.536;7.562;2024-03-02T11:58:03;1.00;;;0.70;;
50219;SDS011;36110;51.536;7.562;2024-03-02T12:00:28;0.98;;;0.88;;
50219;SDS011;36110;51.536;7.562;2024-03-02T12:05:26;2.53;;;1.63;;
50219;SDS011;36110;51.536;7.562;2024-03-02T12:07:55;2.00;;;1.25;;
50219;SDS011;36110;51.536;7.562;2024-03-02T12:10:28;2.45;;;1.33;;
50219;SDS011;36110;51.536;7.562;2024-03-02T12:13:03;1.77;;;1.20;;
50219;SDS011;36110;51.536;7.562;2024-03-02T12:15:32;2.95;;;1.10;;
50219;SDS011;36110;51.536;7.562;2024-03-02T12:18:00;1.33;;;1.20;;
50219;SDS011;36110;51.536;7.562;2024-03-02T12:20:27;1.70;;;1.02;;
50219;SDS011;36110;51.536;7.562;2024-03-02T12:22:54;1.75;;;1.20;;
50219;SDS011;36110;51.536;7.562;2024-03-02T12:25:22;3.13;;;1.63;;
50219;SDS011;36110;51.536;7.562;2024-03-02T12:27:49;0.90;;;0.80;;
50219;SDS011;36110;51.536;7.562;2024-03-02T12:30:19;1.10;;;1.00;;
50219;SDS011;36110;51.536;7.562;2024-03-02T12:32:44;1.30;;;1.20;;
50219;SDS011;36110;51.536;7.562;2024-03-02T12:35:10;1.60;;;1.40;;
50219;SDS011;36110;51.536;7.562;2024-03-02T12:37:50;4.20;;;1.70;;
50219;SDS011;36110;51.536;7.562;2024-03-02T12:40:17;1.60;;;1.10;;
50219;SDS011;36110;51.536;7.562;2024-03-02T12:42:43;14.73;;;2.92;;
50219;SDS011;36110;51.536;7.562;2024-03-02T12:45:10;1.48;;;0.90;;
50219;SDS011;36110;51.536;7.562;2024-03-02T12:47:35;1.15;;;0.93;;
50219;SDS011;36110;51.536;7.562;2024-03-02T12:50:01;1.80;;;1.60;;
50219;SDS011;36110;51.536;7.562;2024-03-02T12:52:27;2.90;;;2.22;;
50219;SDS011;36110;51.536;7.562;2024-03-02T12:54:53;1.60;;;1.30;;
50219;SDS011;36110;51.536;7.562;2024-03-02T12:57:24;0.70;;;0.70;;
50219;SDS011;36110;51.536;7.562;2024-03-02T12:59:50;1.20;;;0.90;;
50219;SDS011;36110;51.536;7.562;2024-03-02T13:02:19;0.90;;;0.90;;
50219;SDS011;36110;51.536;7.562;2024-03-02T13:04:44;3.28;;;1.20;;
50219;SDS011;36110;51.536;7.562;2024-03-02T13:07:19;2.53;;;1.20;;
50219;SDS011;36110;51.536;7.562;2024-03-02T13:09:45;2.15;;;1.10;;
50219;SDS011;36110;51.536;7.562;2024-03-02T13:12:11;1.55;;;1.20;;
50219;SDS011;36110;51.536;7.562;2024-03-02T13:14:36;1.20;;;1.05;;
50219;SDS011;36110;51.536;7.562;2024-03-02T13:17:02;0.85;;;0.85;;
50219;SDS011;36110;51.536;7.562;2024-03-02T13:19:30;2.55;;;1.40;;
50219;SDS011;36110;51.536;7.562;2024-03-02T13:21:56;2.08;;;1.10;;
50219;SDS011;36110;51.536;7.562;2024-03-02T13:24:22;1.25;;;1.15;;
50219;SDS011;36110;51.536;7.562;2024-03-02T13:26:50;2.05;;;0.90;;
50219;SDS011;36110;51.536;7.562;2024-03-02T13:29:20;1.70;;;1.00;;
50219;SDS011;36110;51.536;7.562;2024-03-02T13:31:46;2.00;;;1.60;;
50219;SDS011;36110;51.536;7.562;2024-03-02T13:34:11;2.08;;;0.90;;
50219;SDS011;36110;51.536;7.562;2024-03-02T13:36:37;2.17;;;1.20;;
50219;SDS011;36110;51.536;7.562;2024-03-02T13:39:03;1.58;;;1.00;;
50219;SDS011;36110;51.536;7.562;2024-03-02T13:41:30;1.40;;;1.08;;
50219;SDS011;36110;51.536;7.562;2024-03-02T13:43:56;2.42;;;0.95;;
50219;SDS011;36110;51.536;7.562;2024-03-02T13:46:22;1.08;;;1.00;;
50219;SDS011;36110;51.536;7.562;2024-03-02T13:48:47;1.60;;;1.13;;
50219;SDS011;36110;51.536;7.562;2024-03-02T13:51:12;1.17;;;1.00;;
50219;SDS011;36110;51.536;7.562;2024-03-02T13:53:38;1.67;;;1.35;;
50219;SDS011;36110;51.536;7.562;2024-03-02T13:56:03;2.22;;;0.90;;
50219;SDS011;36110;51.536;7.562;2024-03-02T13:58:28;5.05;;;1.35;;
50219;SDS011;36110;51.536;7.562;2024-03-02T14:00:54;0.88;;;0.80;;
50219;SDS011;36110;51.536;7.562;2024-03-02T14:03:21;2.28;;;0.80;;
50219;SDS011;36110;51.536;7.562;2024-03-02T14:05:46;1.98;;;1.23;;
50219;SDS011;36110;51.536;7.562;2024-03-02T14:08:13;2.88;;;0.98;;
50219;SDS011;36110;51.536;7.562;2024-03-02T14:10:39;2.33;;;1.27;;
50219;SDS011;36110;51.536;7.562;2024-03-02T14:13:04;0.90;;;0.80;;
50219;SDS011;36110;51.536;7.562;2024-03-02T14:15:30;1.50;;;1.00;;
50219;SDS011;36110;51.536;7.562;2024-03-02T14:17:56;0.85;;;0.80;;
50219;SDS011;36110;51.536;7.562;2024-03-02T14:20:21;0.85;;;0.70;;
50219;SDS011;36110;51.536;7.562;2024-03-02T14:22:47;1.45;;;0.70;;
50219;SDS011;36110;51.536;7.562;2024-03-02T14:25:13;2.35;;;0.95;;
50219;SDS011;36110;51.536;7.562;2024-03-02T14:27:39;0.82;;;0.80;;
50219;SDS011;36110;51.536;7.562;2024-03-02T14:30:04;1.65;;;1.00;;
50219;SDS011;36110;51.536;7.562;2024-03-02T14:32:30;4.88;;;1.08;;
50219;SDS011;36110;51.536;7.562;2024-03-02T14:34:55;1.30;;;0.80;;
50219;SDS011;36110;51.536;7.562;2024-03-02T14:37:21;1.35;;;1.00;;
50219;SDS011;36110;51.536;7.562;2024-03-02T14:39:46;1.42;;;1.10;;
50219;SDS011;36110;51.536;7.562;2024-03-02T14:42:12;1.70;;;1.00;;
50219;SDS011;36110;51.536;7.562;2024-03-02T14:44:37;3.20;;;1.17;;
50219;SDS011;36110;51.536;7.562;2024-03-02T14:47:02;2.38;;;1.05;;
50219;SDS011;36110;51.536;7.562;2024-03-02T14:49:31;1.88;;;1.20;;
50219;SDS011;36110;51.536;7.562;2024-03-02T14:51:58;2.28;;;1.20;;
50219;SDS011;36110;51.536;7.562;2024-03-02T14:54:24;3.42;;;1.20;;
50219;SDS011;36110;51.536;7.562;2024-03-02T14:56:49;2.55;;;1.27;;
50219;SDS011;36110;51.536;7.562;2024-03-02T14:59:15;2.50;;;1.40;;